Hayward, Missouri
Current Conditions -  °F | °C
As of 11:15 AM on Friday 19 Dec 2014 (Local Time) from KDYR Reporting Station
Overcast Overcast  
Wind Chill: 33°   Ceiling: 4200
Heat Index: 39°   Visibility: 10mi
Dew Point: 21°   Wind: 9mph
Humidity: 49%   Direction: 60°ENE
Pressure: 30.29"   Gusts: NA
Location:  36.4157°N, 89.6885°W
Report Text: KDYR 191715Z 06008KT 10SM OVC042 04/M06 A3029 RMK AO1
Loading
Personal Weather Stations






























Interactive Weather Map New forecast layout! Learn more

10-Day Weather Forecast

Advertisements
Track Severe Weather on mobile